sensor_id;sensor_type;location;lat;lon;timestamp;P1;durP1;ratioP1;P2;durP2;ratioP2
78858;SDS011;68210;52.032;4.634;2023-07-31T00:00:16;21.90;;;4.82;;
78858;SDS011;68210;52.032;4.634;2023-07-31T00:02:17;17.02;;;4.30;;
78858;SDS011;68210;52.032;4.634;2023-07-31T00:04:17;26.38;;;5.85;;
78858;SDS011;68210;52.032;4.634;2023-07-31T00:06:17;21.10;;;4.90;;
78858;SDS011;68210;52.032;4.634;2023-07-31T00:08:18;16.48;;;4.43;;
78858;SDS011;68210;52.032;4.634;2023-07-31T00:10:18;22.20;;;4.78;;
78858;SDS011;68210;52.032;4.634;2023-07-31T00:12:19;19.08;;;4.07;;
78858;SDS011;68210;52.032;4.634;2023-07-31T00:14:19;16.75;;;4.78;;
78858;SDS011;68210;52.032;4.634;2023-07-31T00:16:20;23.20;;;4.70;;
78858;SDS011;68210;52.032;4.634;2023-07-31T00:18:20;16.40;;;4.63;;
78858;SDS011;68210;52.032;4.634;2023-07-31T00:20:21;17.73;;;4.70;;
78858;SDS011;68210;52.032;4.634;2023-07-31T00:22:21;16.13;;;4.25;;
78858;SDS011;68210;52.032;4.634;2023-07-31T00:24:22;20.38;;;4.93;;
78858;SDS011;68210;52.032;4.634;2023-07-31T00:26:22;19.63;;;4.47;;
78858;SDS011;68210;52.032;4.634;2023-07-31T00:28:23;17.80;;;4.97;;
78858;SDS011;68210;52.032;4.634;2023-07-31T00:30:23;20.75;;;4.53;;
78858;SDS011;68210;52.032;4.634;2023-07-31T00:32:25;19.95;;;5.28;;
78858;SDS011;68210;52.032;4.634;2023-07-31T00:34:26;21.30;;;4.50;;
78858;SDS011;68210;52.032;4.634;2023-07-31T00:36:26;18.23;;;4.00;;
78858;SDS011;68210;52.032;4.634;2023-07-31T00:38:26;21.45;;;5.65;;
78858;SDS011;68210;52.032;4.634;2023-07-31T00:40:27;19.55;;;5.07;;
78858;SDS011;68210;52.032;4.634;2023-07-31T00:42:27;19.90;;;4.80;;
78858;SDS011;68210;52.032;4.634;2023-07-31T00:44:28;15.93;;;4.15;;
78858;SDS011;68210;52.032;4.634;2023-07-31T00:46:28;22.33;;;5.18;;
78858;SDS011;68210;52.032;4.634;2023-07-31T00:48:29;17.15;;;4.35;;
78858;SDS011;68210;52.032;4.634;2023-07-31T00:50:30;19.33;;;5.90;;
78858;SDS011;68210;52.032;4.634;2023-07-31T00:52:30;16.42;;;4.80;;
78858;SDS011;68210;52.032;4.634;2023-07-31T00:54:30;16.98;;;5.32;;
78858;SDS011;68210;52.032;4.634;2023-07-31T00:56:31;17.70;;;5.00;;
78858;SDS011;68210;52.032;4.634;2023-07-31T00:58:32;21.75;;;5.22;;
78858;SDS011;68210;52.032;4.634;2023-07-31T01:00:33;20.27;;;4.40;;
78858;SDS011;68210;52.032;4.634;2023-07-31T01:02:33;16.20;;;4.78;;
78858;SDS011;68210;52.032;4.634;2023-07-31T01:04:34;19.38;;;4.70;;
78858;SDS011;68210;52.032;4.634;2023-07-31T01:06:56;20.50;;;4.90;;
78858;SDS011;68210;52.032;4.634;2023-07-31T01:09:04;15.70;;;5.05;;
78858;SDS011;68210;52.032;4.634;2023-07-31T01:13:19;15.52;;;5.20;;
78858;SDS011;68210;52.032;4.634;2023-07-31T01:15:21;16.42;;;4.60;;
78858;SDS011;68210;52.032;4.634;2023-07-31T01:17:21;12.07;;;4.18;;
78858;SDS011;68210;52.032;4.634;2023-07-31T01:19:22;10.95;;;3.17;;
78858;SDS011;68210;52.032;4.634;2023-07-31T01:28:05;14.18;;;3.88;;
78858;SDS011;68210;52.032;4.634;2023-07-31T01:30:11;16.20;;;4.50;;
78858;SDS011;68210;52.032;4.634;2023-07-31T01:32:17;16.88;;;4.72;;
78858;SDS011;68210;52.032;4.634;2023-07-31T01:34:19;17.88;;;4.20;;
78858;SDS011;68210;52.032;4.634;2023-07-31T01:36:21;17.30;;;3.60;;
78858;SDS011;68210;52.032;4.634;2023-07-31T01:38:22;18.23;;;4.53;;
78858;SDS011;68210;52.032;4.634;2023-07-31T01:40:22;17.67;;;5.18;;
78858;SDS011;68210;52.032;4.634;2023-07-31T01:42:23;17.95;;;4.82;;
78858;SDS011;68210;52.032;4.634;2023-07-31T01:44:23;17.73;;;4.40;;
78858;SDS011;68210;52.032;4.634;2023-07-31T01:46:24;19.33;;;5.22;;
78858;SDS011;68210;52.032;4.634;2023-07-31T01:48:24;15.32;;;4.07;;
78858;SDS011;68210;52.032;4.634;2023-07-31T01:50:24;16.25;;;4.82;;
78858;SDS011;68210;52.032;4.634;2023-07-31T01:52:25;20.77;;;4.95;;
78858;SDS011;68210;52.032;4.634;2023-07-31T01:54:25;18.85;;;4.47;;
78858;SDS011;68210;52.032;4.634;2023-07-31T01:56:26;21.17;;;5.10;;
78858;SDS011;68210;52.032;4.634;2023-07-31T01:58:26;20.05;;;5.25;;
78858;SDS011;68210;52.032;4.634;2023-07-31T02:00:26;19.70;;;4.97;;
78858;SDS011;68210;52.032;4.634;2023-07-31T02:02:27;16.17;;;4.63;;
78858;SDS011;68210;52.032;4.634;2023-07-31T02:04:27;16.63;;;5.28;;
78858;SDS011;68210;52.032;4.634;2023-07-31T02:06:27;15.25;;;4.75;;
78858;SDS011;68210;52.032;4.634;2023-07-31T02:08:28;22.63;;;4.78;;
78858;SDS011;68210;52.032;4.634;2023-07-31T02:10:28;16.20;;;4.80;;
78858;SDS011;68210;52.032;4.634;2023-07-31T02:12:29;16.52;;;4.65;;
78858;SDS011;68210;52.032;4.634;2023-07-31T02:14:31;15.85;;;4.57;;
78858;SDS011;68210;52.032;4.634;2023-07-31T02:16:32;18.10;;;6.10;;
78858;SDS011;68210;52.032;4.634;2023-07-31T02:18:32;16.08;;;4.65;;
78858;SDS011;68210;52.032;4.634;2023-07-31T02:20:33;14.88;;;5.00;;
78858;SDS011;68210;52.032;4.634;2023-07-31T02:22:35;21.33;;;5.05;;
78858;SDS011;68210;52.032;4.634;2023-07-31T02:24:35;20.92;;;5.18;;
78858;SDS011;68210;52.032;4.634;2023-07-31T02:26:35;15.95;;;4.70;;
78858;SDS011;68210;52.032;4.634;2023-07-31T02:28:36;21.55;;;5.38;;
78858;SDS011;68210;52.032;4.634;2023-07-31T02:30:37;18.92;;;5.60;;
78858;SDS011;68210;52.032;4.634;2023-07-31T02:32:37;21.35;;;5.82;;
78858;SDS011;68210;52.032;4.634;2023-07-31T02:34:38;13.63;;;4.53;;
78858;SDS011;68210;52.032;4.634;2023-07-31T02:36:38;15.10;;;4.72;;
78858;SDS011;68210;52.032;4.634;2023-07-31T02:38:38;16.63;;;4.50;;
78858;SDS011;68210;52.032;4.634;2023-07-31T02:40:39;20.98;;;5.15;;
78858;SDS011;68210;52.032;4.634;2023-07-31T02:42:43;20.48;;;5.32;;
78858;SDS011;68210;52.032;4.634;2023-07-31T02:44:43;19.02;;;4.68;;
78858;SDS011;68210;52.032;4.634;2023-07-31T02:46:44;16.90;;;4.95;;
78858;SDS011;68210;52.032;4.634;2023-07-31T02:48:44;15.25;;;4.68;;
78858;SDS011;68210;52.032;4.634;2023-07-31T02:50:45;18.10;;;4.50;;
78858;SDS011;68210;52.032;4.634;2023-07-31T02:52:46;18.77;;;4.50;;
78858;SDS011;68210;52.032;4.634;2023-07-31T02:54:46;14.38;;;4.22;;
78858;SDS011;68210;52.032;4.634;2023-07-31T02:56:47;22.42;;;4.78;;
78858;SDS011;68210;52.032;4.634;2023-07-31T02:58:47;17.52;;;4.38;;
78858;SDS011;68210;52.032;4.634;2023-07-31T03:00:48;20.23;;;5.47;;
78858;SDS011;68210;52.032;4.634;2023-07-31T03:02:49;13.93;;;4.13;;
78858;SDS011;68210;52.032;4.634;2023-07-31T03:04:49;15.52;;;4.38;;
78858;SDS011;68210;52.032;4.634;2023-07-31T03:06:50;13.25;;;4.32;;
78858;SDS011;68210;52.032;4.634;2023-07-31T03:08:50;17.92;;;4.85;;
78858;SDS011;68210;52.032;4.634;2023-07-31T03:10:50;15.15;;;4.68;;
78858;SDS011;68210;52.032;4.634;2023-07-31T03:12:51;18.02;;;4.60;;
78858;SDS011;68210;52.032;4.634;2023-07-31T03:14:51;16.77;;;4.18;;
78858;SDS011;68210;52.032;4.634;2023-07-31T03:16:52;20.27;;;4.47;;
78858;SDS011;68210;52.032;4.634;2023-07-31T03:18:52;14.82;;;3.97;;
78858;SDS011;68210;52.032;4.634;2023-07-31T03:20:53;15.23;;;4.82;;
78858;SDS011;68210;52.032;4.634;2023-07-31T03:22:53;14.23;;;4.25;;
78858;SDS011;68210;52.032;4.634;2023-07-31T03:24:53;15.13;;;4.70;;
78858;SDS011;68210;52.032;4.634;2023-07-31T03:26:54;20.35;;;4.90;;
78858;SDS011;68210;52.032;4.634;2023-07-31T03:28:54;14.25;;;4.55;;
78858;SDS011;68210;52.032;4.634;2023-07-31T03:30:54;14.80;;;4.28;;
78858;SDS011;68210;52.032;4.634;2023-07-31T03:32:55;18.25;;;4.22;;
78858;SDS011;68210;52.032;4.634;2023-07-31T03:34:55;14.52;;;4.22;;
78858;SDS011;68210;52.032;4.634;2023-07-31T03:36:55;17.88;;;4.40;;
78858;SDS011;68210;52.032;4.634;2023-07-31T03:38:56;21.30;;;5.80;;
78858;SDS011;68210;52.032;4.634;2023-07-31T03:40:56;17.42;;;4.10;;
78858;SDS011;68210;52.032;4.634;2023-07-31T03:42:58;22.50;;;5.07;;
78858;SDS011;68210;52.032;4.634;2023-07-31T03:44:59;17.75;;;4.70;;
78858;SDS011;68210;52.032;4.634;2023-07-31T03:46:59;19.35;;;4.70;;
78858;SDS011;68210;52.032;4.634;2023-07-31T03:48:59;18.95;;;4.57;;
78858;SDS011;68210;52.032;4.634;2023-07-31T03:51:00;14.50;;;4.68;;
78858;SDS011;68210;52.032;4.634;2023-07-31T03:53:00;15.57;;;4.07;;
78858;SDS011;68210;52.032;4.634;2023-07-31T03:55:01;13.27;;;4.18;;
78858;SDS011;68210;52.032;4.634;2023-07-31T03:57:01;15.57;;;4.60;;
78858;SDS011;68210;52.032;4.634;2023-07-31T03:59:01;14.75;;;4.03;;
78858;SDS011;68210;52.032;4.634;2023-07-31T04:01:02;14.45;;;4.13;;
78858;SDS011;68210;52.032;4.634;2023-07-31T04:03:03;19.02;;;3.90;;
78858;SDS011;68210;52.032;4.634;2023-07-31T04:05:03;17.02;;;5.28;;
78858;SDS011;68210;52.032;4.634;2023-07-31T04:07:04;17.85;;;5.47;;
78858;SDS011;68210;52.032;4.634;2023-07-31T04:09:04;10.75;;;4.55;;
78858;SDS011;68210;52.032;4.634;2023-07-31T04:11:04;17.10;;;5.50;;
78858;SDS011;68210;52.032;4.634;2023-07-31T04:13:05;14.68;;;4.63;;
78858;SDS011;68210;52.032;4.634;2023-07-31T04:15:05;12.93;;;4.43;;
78858;SDS011;68210;52.032;4.634;2023-07-31T04:17:06;13.07;;;4.68;;
78858;SDS011;68210;52.032;4.634;2023-07-31T04:19:06;9.30;;;3.90;;
78858;SDS011;68210;52.032;4.634;2023-07-31T04:21:07;12.45;;;4.55;;
78858;SDS011;68210;52.032;4.634;2023-07-31T04:23:07;11.35;;;4.75;;
78858;SDS011;68210;52.032;4.634;2023-07-31T04:25:08;13.45;;;4.57;;
78858;SDS011;68210;52.032;4.634;2023-07-31T04:27:08;10.50;;;3.72;;
78858;SDS011;68210;52.032;4.634;2023-07-31T04:29:08;9.10;;;3.70;;
78858;SDS011;68210;52.032;4.634;2023-07-31T04:31:09;10.75;;;3.85;;
78858;SDS011;68210;52.032;4.634;2023-07-31T04:33:09;8.98;;;3.22;;
78858;SDS011;68210;52.032;4.634;2023-07-31T04:35:10;10.32;;;3.35;;
78858;SDS011;68210;52.032;4.634;2023-07-31T04:37:10;11.60;;;2.88;;
78858;SDS011;68210;52.032;4.634;2023-07-31T04:39:10;8.90;;;3.10;;
78858;SDS011;68210;52.032;4.634;2023-07-31T04:41:11;11.30;;;4.10;;
78858;SDS011;68210;52.032;4.634;2023-07-31T04:43:11;9.35;;;3.05;;
78858;SDS011;68210;52.032;4.634;2023-07-31T04:45:12;7.65;;;2.97;;
78858;SDS011;68210;52.032;4.634;2023-07-31T04:47:12;6.57;;;2.63;;
78858;SDS011;68210;52.032;4.634;2023-07-31T04:49:12;5.57;;;2.53;;
78858;SDS011;68210;52.032;4.634;2023-07-31T04:51:13;5.97;;;2.50;;
78858;SDS011;68210;52.032;4.634;2023-07-31T04:53:13;7.43;;;2.42;;
78858;SDS011;68210;52.032;4.634;2023-07-31T04:55:14;4.60;;;2.10;;
78858;SDS011;68210;52.032;4.634;2023-07-31T04:57:14;4.93;;;2.53;;
78858;SDS011;68210;52.032;4.634;2023-07-31T04:59:14;4.72;;;2.22;;
78858;SDS011;68210;52.032;4.634;2023-07-31T05:01:15;6.40;;;3.17;;
78858;SDS011;68210;52.032;4.634;2023-07-31T05:03:15;3.95;;;2.33;;
78858;SDS011;68210;52.032;4.634;2023-07-31T05:05:16;6.05;;;2.53;;
78858;SDS011;68210;52.032;4.634;2023-07-31T05:07:16;7.40;;;3.03;;
78858;SDS011;68210;52.032;4.634;2023-07-31T05:09:17;8.40;;;3.15;;
78858;SDS011;68210;52.032;4.634;2023-07-31T05:11:18;5.88;;;2.80;;
78858;SDS011;68210;52.032;4.634;2023-07-31T05:13:18;5.80;;;2.65;;
78858;SDS011;68210;52.032;4.634;2023-07-31T05:15:18;5.57;;;2.60;;
78858;SDS011;68210;52.032;4.634;2023-07-31T05:17:19;9.68;;;3.50;;
78858;SDS011;68210;52.032;4.634;2023-07-31T05:19:19;8.98;;;2.80;;
78858;SDS011;68210;52.032;4.634;2023-07-31T05:21:19;7.30;;;3.00;;
78858;SDS011;68210;52.032;4.634;2023-07-31T05:23:20;7.55;;;3.33;;
78858;SDS011;68210;52.032;4.634;2023-07-31T05:25:20;7.97;;;2.65;;
78858;SDS011;68210;52.032;4.634;2023-07-31T05:27:21;7.32;;;2.70;;
78858;SDS011;68210;52.032;4.634;2023-07-31T05:29:21;8.43;;;2.72;;
78858;SDS011;68210;52.032;4.634;2023-07-31T05:31:21;7.63;;;2.60;;
78858;SDS011;68210;52.032;4.634;2023-07-31T05:33:22;4.90;;;2.08;;
78858;SDS011;68210;52.032;4.634;2023-07-31T05:35:23;7.28;;;3.15;;
78858;SDS011;68210;52.032;4.634;2023-07-31T05:37:23;8.18;;;2.33;;
78858;SDS011;68210;52.032;4.634;2023-07-31T05:39:24;5.53;;;2.40;;
78858;SDS011;68210;52.032;4.634;2023-07-31T05:41:24;7.63;;;2.72;;
78858;SDS011;68210;52.032;4.634;2023-07-31T05:43:24;4.35;;;1.95;;
78858;SDS011;68210;52.032;4.634;2023-07-31T05:45:25;8.82;;;2.72;;
78858;SDS011;68210;52.032;4.634;2023-07-31T05:47:25;5.82;;;2.38;;
78858;SDS011;68210;52.032;4.634;2023-07-31T05:49:26;5.43;;;2.60;;
78858;SDS011;68210;52.032;4.634;2023-07-31T05:51:26;5.15;;;2.30;;
78858;SDS011;68210;52.032;4.634;2023-07-31T05:53:27;4.70;;;2.10;;
78858;SDS011;68210;52.032;4.634;2023-07-31T05:55:28;6.07;;;2.00;;
78858;SDS011;68210;52.032;4.634;2023-07-31T05:57:28;4.18;;;2.00;;
78858;SDS011;68210;52.032;4.634;2023-07-31T05:59:29;4.70;;;2.20;;
78858;SDS011;68210;52.032;4.634;2023-07-31T06:01:31;5.13;;;1.98;;
78858;SDS011;68210;52.032;4.634;2023-07-31T06:03:32;5.72;;;2.60;;
78858;SDS011;68210;52.032;4.634;2023-07-31T06:05:32;5.05;;;2.10;;
78858;SDS011;68210;52.032;4.634;2023-07-31T06:07:32;5.32;;;2.03;;
78858;SDS011;68210;52.032;4.634;2023-07-31T06:09:33;6.43;;;1.98;;
78858;SDS011;68210;52.032;4.634;2023-07-31T06:11:33;3.85;;;2.17;;
78858;SDS011;68210;52.032;4.634;2023-07-31T06:13:33;4.35;;;2.25;;
78858;SDS011;68210;52.032;4.634;2023-07-31T06:15:34;6.07;;;2.22;;
78858;SDS011;68210;52.032;4.634;2023-07-31T06:17:34;5.60;;;2.55;;
78858;SDS011;68210;52.032;4.634;2023-07-31T06:19:35;5.60;;;2.60;;
78858;SDS011;68210;52.032;4.634;2023-07-31T06:21:35;7.70;;;2.83;;
78858;SDS011;68210;52.032;4.634;2023-07-31T06:23:37;5.72;;;2.58;;
78858;SDS011;68210;52.032;4.634;2023-07-31T06:25:37;4.30;;;2.15;;
78858;SDS011;68210;52.032;4.634;2023-07-31T06:27:38;5.93;;;2.30;;
78858;SDS011;68210;52.032;4.634;2023-07-31T06:29:38;4.38;;;1.95;;
78858;SDS011;68210;52.032;4.634;2023-07-31T06:31:40;4.97;;;1.70;;
78858;SDS011;68210;52.032;4.634;2023-07-31T06:33:40;3.15;;;1.55;;
78858;SDS011;68210;52.032;4.634;2023-07-31T06:35:41;3.30;;;1.35;;
78858;SDS011;68210;52.032;4.634;2023-07-31T06:37:41;4.47;;;1.42;;
78858;SDS011;68210;52.032;4.634;2023-07-31T06:39:44;2.97;;;1.65;;
78858;SDS011;68210;52.032;4.634;2023-07-31T06:41:44;4.40;;;2.03;;
78858;SDS011;68210;52.032;4.634;2023-07-31T06:43:44;2.65;;;1.40;;
78858;SDS011;68210;52.032;4.634;2023-07-31T06:45:45;4.43;;;2.42;;
78858;SDS011;68210;52.032;4.634;2023-07-31T06:47:46;2.67;;;1.50;;
78858;SDS011;68210;52.032;4.634;2023-07-31T06:49:46;3.85;;;1.67;;
78858;SDS011;68210;52.032;4.634;2023-07-31T06:51:47;4.50;;;1.48;;
78858;SDS011;68210;52.032;4.634;2023-07-31T06:53:47;2.25;;;1.40;;
78858;SDS011;68210;52.032;4.634;2023-07-31T06:55:48;3.40;;;1.20;;
78858;SDS011;68210;52.032;4.634;2023-07-31T06:57:49;4.70;;;1.67;;
78858;SDS011;68210;52.032;4.634;2023-07-31T06:59:50;4.07;;;1.55;;
78858;SDS011;68210;52.032;4.634;2023-07-31T07:01:50;2.65;;;1.00;;
78858;SDS011;68210;52.032;4.634;2023-07-31T07:03:51;2.65;;;1.17;;
78858;SDS011;68210;52.032;4.634;2023-07-31T07:05:51;2.22;;;1.20;;
78858;SDS011;68210;52.032;4.634;2023-07-31T07:07:51;2.42;;;1.33;;
78858;SDS011;68210;52.032;4.634;2023-07-31T07:09:52;5.25;;;1.75;;
78858;SDS011;68210;52.032;4.634;2023-07-31T07:11:52;3.35;;;1.20;;
78858;SDS011;68210;52.032;4.634;2023-07-31T07:13:53;2.08;;;1.00;;
78858;SDS011;68210;52.032;4.634;2023-07-31T07:15:53;1.73;;;1.20;;
78858;SDS011;68210;52.032;4.634;2023-07-31T07:17:53;3.22;;;1.30;;
78858;SDS011;68210;52.032;4.634;2023-07-31T07:19:54;2.35;;;1.27;;
78858;SDS011;68210;52.032;4.634;2023-07-31T07:21:57;2.92;;;1.23;;
78858;SDS011;68210;52.032;4.634;2023-07-31T07:23:59;2.95;;;1.30;;
78858;SDS011;68210;52.032;4.634;2023-07-31T07:26:00;3.28;;;1.60;;
78858;SDS011;68210;52.032;4.634;2023-07-31T07:28:00;3.15;;;1.25;;
78858;SDS011;68210;52.032;4.634;2023-07-31T07:30:01;1.98;;;1.55;;
78858;SDS011;68210;52.032;4.634;2023-07-31T07:32:01;2.25;;;1.23;;
78858;SDS011;68210;52.032;4.634;2023-07-31T07:34:02;1.20;;;0.98;;
78858;SDS011;68210;52.032;4.634;2023-07-31T07:36:02;2.42;;;1.30;;
78858;SDS011;68210;52.032;4.634;2023-07-31T07:38:03;1.80;;;1.10;;
78858;SDS011;68210;52.032;4.634;2023-07-31T07:40:04;3.17;;;1.30;;
78858;SDS011;68210;52.032;4.634;2023-07-31T07:42:05;1.70;;;0.90;;
78858;SDS011;68210;52.032;4.634;2023-07-31T07:44:07;1.55;;;1.00;;
78858;SDS011;68210;52.032;4.634;2023-07-31T07:46:08;3.95;;;1.30;;
78858;SDS011;68210;52.032;4.634;2023-07-31T07:48:08;1.67;;;1.13;;
78858;SDS011;68210;52.032;4.634;2023-07-31T07:50:09;4.47;;;1.35;;
78858;SDS011;68210;52.032;4.634;2023-07-31T07:52:09;2.38;;;1.30;;
78858;SDS011;68210;52.032;4.634;2023-07-31T07:54:09;1.70;;;0.90;;
78858;SDS011;68210;52.032;4.634;2023-07-31T07:56:10;1.65;;;0.82;;
78858;SDS011;68210;52.032;4.634;2023-07-31T07:58:10;1.70;;;0.90;;
78858;SDS011;68210;52.032;4.634;2023-07-31T08:00:12;1.40;;;0.90;;
78858;SDS011;68210;52.032;4.634;2023-07-31T08:02:13;1.80;;;0.85;;
78858;SDS011;68210;52.032;4.634;2023-07-31T08:04:13;2.13;;;0.90;;
78858;SDS011;68210;52.032;4.634;2023-07-31T08:06:14;2.58;;;0.70;;
78858;SDS011;68210;52.032;4.634;2023-07-31T08:08:15;1.92;;;0.90;;
78858;SDS011;68210;52.032;4.634;2023-07-31T08:10:18;1.85;;;0.82;;
78858;SDS011;68210;52.032;4.634;2023-07-31T08:12:19;1.90;;;1.00;;
78858;SDS011;68210;52.032;4.634;2023-07-31T08:14:19;1.65;;;0.82;;
78858;SDS011;68210;52.032;4.634;2023-07-31T08:16:19;1.10;;;0.70;;
78858;SDS011;68210;52.032;4.634;2023-07-31T08:18:20;1.05;;;0.50;;
78858;SDS011;68210;52.032;4.634;2023-07-31T08:20:20;0.98;;;0.60;;
78858;SDS011;68210;52.032;4.634;2023-07-31T08:22:21;1.75;;;0.63;;
78858;SDS011;68210;52.032;4.634;2023-07-31T08:24:22;1.70;;;0.93;;
78858;SDS011;68210;52.032;4.634;2023-07-31T08:26:22;1.15;;;0.80;;
78858;SDS011;68210;52.032;4.634;2023-07-31T08:28:23;1.58;;;0.65;;
78858;SDS011;68210;52.032;4.634;2023-07-31T08:30:23;2.92;;;0.88;;
78858;SDS011;68210;52.032;4.634;2023-07-31T08:32:23;1.27;;;0.70;;
78858;SDS011;68210;52.032;4.634;2023-07-31T08:34:24;1.27;;;0.73;;
78858;SDS011;68210;52.032;4.634;2023-07-31T08:36:25;1.42;;;0.75;;
78858;SDS011;68210;52.032;4.634;2023-07-31T08:38:25;3.08;;;0.90;;
78858;SDS011;68210;52.032;4.634;2023-07-31T08:40:26;1.48;;;0.60;;
78858;SDS011;68210;52.032;4.634;2023-07-31T08:42:28;1.77;;;0.80;;
78858;SDS011;68210;52.032;4.634;2023-07-31T08:44:29;2.15;;;0.75;;
78858;SDS011;68210;52.032;4.634;2023-07-31T08:46:31;1.85;;;0.80;;
78858;SDS011;68210;52.032;4.634;2023-07-31T08:48:32;2.47;;;0.50;;
78858;SDS011;68210;52.032;4.634;2023-07-31T08:50:35;1.67;;;0.80;;
78858;SDS011;68210;52.032;4.634;2023-07-31T08:52:37;0.70;;;0.50;;
78858;SDS011;68210;52.032;4.634;2023-07-31T08:54:37;1.33;;;0.90;;
78858;SDS011;68210;52.032;4.634;2023-07-31T08:56:38;0.90;;;0.60;;
78858;SDS011;68210;52.032;4.634;2023-07-31T08:58:39;1.33;;;0.70;;
78858;SDS011;68210;52.032;4.634;2023-07-31T09:00:40;1.73;;;0.80;;
78858;SDS011;68210;52.032;4.634;2023-07-31T09:02:45;3.42;;;1.48;;
78858;SDS011;68210;52.032;4.634;2023-07-31T09:04:48;6.30;;;1.15;;
78858;SDS011;68210;52.032;4.634;2023-07-31T09:06:49;3.00;;;1.17;;
78858;SDS011;68210;52.032;4.634;2023-07-31T09:08:53;4.80;;;1.60;;
78858;SDS011;68210;52.032;4.634;2023-07-31T09:10:59;2.30;;;1.10;;
78858;SDS011;68210;52.032;4.634;2023-07-31T09:13:01;4.00;;;1.15;;
78858;SDS011;68210;52.032;4.634;2023-07-31T09:15:03;4.65;;;1.58;;
78858;SDS011;68210;52.032;4.634;2023-07-31T09:17:04;4.53;;;2.38;;
78858;SDS011;68210;52.032;4.634;2023-07-31T09:19:04;5.75;;;1.50;;
78858;SDS011;68210;52.032;4.634;2023-07-31T09:21:05;4.28;;;1.63;;
78858;SDS011;68210;52.032;4.634;2023-07-31T09:23:07;4.57;;;1.60;;
78858;SDS011;68210;52.032;4.634;2023-07-31T09:27:16;7.20;;;2.45;;
78858;SDS011;68210;52.032;4.634;2023-07-31T09:29:18;3.95;;;2.30;;
78858;SDS011;68210;52.032;4.634;2023-07-31T09:31:31;5.40;;;2.05;;
78858;SDS011;68210;52.032;4.634;2023-07-31T09:33:54;3.28;;;1.92;;
78858;SDS011;68210;52.032;4.634;2023-07-31T09:35:55;3.40;;;1.98;;
78858;SDS011;68210;52.032;4.634;2023-07-31T09:37:59;3.20;;;1.70;;
78858;SDS011;68210;52.032;4.634;2023-07-31T09:40:01;2.47;;;1.25;;
78858;SDS011;68210;52.032;4.634;2023-07-31T09:42:01;2.03;;;1.27;;
78858;SDS011;68210;52.032;4.634;2023-07-31T09:44:01;3.42;;;1.73;;
78858;SDS011;68210;52.032;4.634;2023-07-31T09:46:02;7.93;;;1.77;;
78858;SDS011;68210;52.032;4.634;2023-07-31T09:48:02;2.67;;;1.38;;
78858;SDS011;68210;52.032;4.634;2023-07-31T09:50:06;4.95;;;1.83;;
78858;SDS011;68210;52.032;4.634;2023-07-31T09:52:11;2.03;;;1.27;;
78858;SDS011;68210;52.032;4.634;2023-07-31T09:54:12;5.25;;;1.60;;
78858;SDS011;68210;52.032;4.634;2023-07-31T09:56:16;3.92;;;1.63;;
78858;SDS011;68210;52.032;4.634;2023-07-31T09:58:20;2.72;;;1.40;;
78858;SDS011;68210;52.032;4.634;2023-07-31T10:00:21;3.25;;;1.70;;
78858;SDS011;68210;52.032;4.634;2023-07-31T10:02:25;4.80;;;1.55;;
78858;SDS011;68210;52.032;4.634;2023-07-31T10:04:27;6.22;;;1.50;;
78858;SDS011;68210;52.032;4.634;2023-07-31T10:06:28;4.47;;;1.42;;
78858;SDS011;68210;52.032;4.634;2023-07-31T10:08:30;3.47;;;1.50;;
78858;SDS011;68210;52.032;4.634;2023-07-31T10:10:35;3.45;;;1.65;;
78858;SDS011;68210;52.032;4.634;2023-07-31T10:12:36;3.03;;;1.30;;
78858;SDS011;68210;52.032;4.634;2023-07-31T10:14:37;3.72;;;1.67;;
78858;SDS011;68210;52.032;4.634;2023-07-31T10:16:41;2.15;;;1.33;;
78858;SDS011;68210;52.032;4.634;2023-07-31T10:18:43;5.50;;;1.52;;
78858;SDS011;68210;52.032;4.634;2023-07-31T10:20:44;3.75;;;1.60;;
78858;SDS011;68210;52.032;4.634;2023-07-31T10:22:46;5.03;;;1.88;;
78858;SDS011;68210;52.032;4.634;2023-07-31T10:24:48;4.05;;;1.42;;
78858;SDS011;68210;52.032;4.634;2023-07-31T10:26:50;4.53;;;1.58;;
78858;SDS011;68210;52.032;4.634;2023-07-31T10:28:52;5.30;;;1.75;;
78858;SDS011;68210;52.032;4.634;2023-07-31T10:30:54;3.75;;;1.73;;
78858;SDS011;68210;52.032;4.634;2023-07-31T10:32:54;6.07;;;2.05;;
78858;SDS011;68210;52.032;4.634;2023-07-31T10:34:56;5.45;;;2.22;;
78858;SDS011;68210;52.032;4.634;2023-07-31T10:37:40;3.63;;;2.00;;
78858;SDS011;68210;52.032;4.634;2023-07-31T10:39:37;8.38;;;1.92;;
78858;SDS011;68210;52.032;4.634;2023-07-31T10:41:39;6.03;;;2.40;;
78858;SDS011;68210;52.032;4.634;2023-07-31T10:43:40;5.25;;;2.20;;
78858;SDS011;68210;52.032;4.634;2023-07-31T10:45:43;7.03;;;2.20;;
78858;SDS011;68210;52.032;4.634;2023-07-31T10:47:44;5.97;;;1.67;;
78858;SDS011;68210;52.032;4.634;2023-07-31T10:49:46;9.38;;;2.88;;
78858;SDS011;68210;52.032;4.634;2023-07-31T10:53:48;6.53;;;2.20;;
78858;SDS011;68210;52.032;4.634;2023-07-31T10:55:49;11.77;;;2.03;;
78858;SDS011;68210;52.032;4.634;2023-07-31T10:59:52;7.55;;;2.00;;
78858;SDS011;68210;52.032;4.634;2023-07-31T11:02:38;7.95;;;2.20;;
78858;SDS011;68210;52.032;4.634;2023-07-31T11:04:38;11.68;;;2.80;;
78858;SDS011;68210;52.032;4.634;2023-07-31T11:06:41;10.90;;;1.95;;
78858;SDS011;68210;52.032;4.634;2023-07-31T11:08:55;6.70;;;2.05;;
78858;SDS011;68210;52.032;4.634;2023-07-31T11:13:03;9.05;;;1.90;;
78858;SDS011;68210;52.032;4.634;2023-07-31T11:15:04;9.52;;;1.90;;
78858;SDS011;68210;52.032;4.634;2023-07-31T11:17:06;6.63;;;2.03;;
78858;SDS011;68210;52.032;4.634;2023-07-31T11:19:08;6.57;;;1.88;;
78858;SDS011;68210;52.032;4.634;2023-07-31T11:21:12;6.28;;;2.08;;
78858;SDS011;68210;52.032;4.634;2023-07-31T11:23:15;8.48;;;1.88;;
78858;SDS011;68210;52.032;4.634;2023-07-31T11:25:17;6.93;;;1.70;;
78858;SDS011;68210;52.032;4.634;2023-07-31T11:27:18;8.52;;;2.05;;
78858;SDS011;68210;52.032;4.634;2023-07-31T11:29:18;5.25;;;1.60;;
78858;SDS011;68210;52.032;4.634;2023-07-31T11:31:19;7.35;;;1.60;;
78858;SDS011;68210;52.032;4.634;2023-07-31T11:33:20;6.50;;;1.85;;
78858;SDS011;68210;52.032;4.634;2023-07-31T11:35:21;6.13;;;2.00;;
78858;SDS011;68210;52.032;4.634;2023-07-31T11:37:22;7.25;;;1.80;;
78858;SDS011;68210;52.032;4.634;2023-07-31T11:39:22;4.53;;;1.38;;
78858;SDS011;68210;52.032;4.634;2023-07-31T11:41:23;5.32;;;1.98;;
78858;SDS011;68210;52.032;4.634;2023-07-31T11:43:23;8.48;;;1.80;;
78858;SDS011;68210;52.032;4.634;2023-07-31T11:45:25;6.55;;;1.90;;
78858;SDS011;68210;52.032;4.634;2023-07-31T11:47:29;8.85;;;1.95;;
78858;SDS011;68210;52.032;4.634;2023-07-31T11:49:30;7.57;;;1.90;;
78858;SDS011;68210;52.032;4.634;2023-07-31T11:51:32;5.38;;;1.65;;
78858;SDS011;68210;52.032;4.634;2023-07-31T11:55:45;10.77;;;2.40;;
78858;SDS011;68210;52.032;4.634;2023-07-31T11:57:46;3.85;;;1.77;;
78858;SDS011;68210;52.032;4.634;2023-07-31T11:59:47;6.05;;;2.03;;
78858;SDS011;68210;52.032;4.634;2023-07-31T12:01:48;5.00;;;2.08;;
78858;SDS011;68210;52.032;4.634;2023-07-31T12:03:53;6.53;;;2.22;;
78858;SDS011;68210;52.032;4.634;2023-07-31T12:05:53;6.63;;;1.95;;
78858;SDS011;68210;52.032;4.634;2023-07-31T12:07:54;6.90;;;1.95;;
78858;SDS011;68210;52.032;4.634;2023-07-31T12:09:55;5.20;;;2.10;;
78858;SDS011;68210;52.032;4.634;2023-07-31T12:11:56;7.65;;;1.85;;
78858;SDS011;68210;52.032;4.634;2023-07-31T12:13:56;3.90;;;1.77;;
78858;SDS011;68210;52.032;4.634;2023-07-31T12:15:57;4.25;;;1.75;;
78858;SDS011;68210;52.032;4.634;2023-07-31T12:18:00;5.28;;;1.67;;
78858;SDS011;68210;52.032;4.634;2023-07-31T12:20:04;7.32;;;1.90;;
78858;SDS011;68210;52.032;4.634;2023-07-31T12:22:11;7.10;;;2.45;;
78858;SDS011;68210;52.032;4.634;2023-07-31T12:24:12;5.22;;;2.10;;
78858;SDS011;68210;52.032;4.634;2023-07-31T12:26:14;5.75;;;2.17;;